Terminal Aerodrome Forecast
Issued by NWS

Home | Current Version | Previous Version | Graphics & Text | Print | Product List | Glossary On
Versions: 1 2 3 4 5 6 7 8 9 10 11 12 13 14 15 16
000
FTUS43 KABR 160026 CCA
TAFATY
TAF COR
KATY 160026Z 1600/1624 33015G24KT P6SM OVC015
     FM160500 34011KT P6SM SCT080
     FM161400 30007KT P6SM SCT250=

USA.gov is the U.S. government's official web portal to all federal, state and local government web resources and services.